Rota, Spain
Current Conditions -  °F | °C
As of 5:00 PM on Monday 24 Nov 2014 (Local Time) from LERT Reporting Station
Scattered Clouds Scattered Clouds  
Wind Chill: 66°   Ceiling: Unl
Heat Index: 66°   Visibility: 6mi
Dew Point: 57°   Wind: 2mph
Humidity: 73%   Direction: NA
Pressure: 30"   Gusts: NA
Location:  36.62°N, 6.36°W
Report Text: LERT 241600Z VRB02KT 9999 FEW020 SCT055 19/14 Q1016 NOSIG
Loading
Personal Weather Stations






























Interactive Weather Map New forecast layout! Learn more

10-Day Weather Forecast

Advertisements
Track Severe Weather on mobile